createdAt,value
2022-08-02T00:02:09.968Z,2.03
2022-08-02T00:07:12.069Z,1.65
2022-08-02T00:12:14.160Z,1.90
2022-08-02T00:17:15.964Z,1.63
2022-08-02T00:22:17.647Z,1.65
2022-08-02T00:27:19.308Z,1.70
2022-08-02T00:32:24.433Z,1.80
2022-08-02T00:37:26.138Z,1.90
2022-08-02T00:42:27.848Z,1.90
2022-08-02T00:47:29.572Z,1.58
2022-08-02T00:52:31.293Z,1.95
2022-08-02T00:57:33.027Z,2.00
2022-08-02T01:02:34.712Z,1.77
2022-08-02T01:07:36.390Z,1.73
2022-08-02T01:12:38.069Z,1.73
2022-08-02T01:18:04.389Z,2.03
2022-08-02T01:23:05.978Z,1.88
2022-08-02T01:28:35.071Z,1.80
2022-08-02T01:33:44.029Z,2.28
2022-08-02T01:38:49.800Z,2.15
2022-08-02T01:43:56.869Z,2.20
2022-08-02T01:49:01.918Z,2.10
2022-08-02T01:54:04.124Z,2.25
2022-08-02T01:59:08.408Z,2.28
2022-08-02T02:04:11.952Z,1.35
2022-08-02T02:09:15.810Z,2.63
2022-08-02T02:14:19.200Z,2.70
2022-08-02T02:19:22.809Z,2.40
2022-08-02T02:24:24.665Z,2.42
2022-08-02T02:29:29.892Z,2.15
2022-08-02T02:34:37.843Z,1.83
2022-08-02T02:39:42.106Z,2.63
2022-08-02T02:44:46.250Z,2.03
2022-08-02T02:49:49.213Z,2.47
2022-08-02T02:54:51.867Z,2.33
2022-08-02T02:59:54.947Z,2.50
2022-08-02T03:04:58.367Z,2.85
2022-08-02T03:10:01.024Z,2.80
2022-08-02T03:15:06.557Z,2.20
2022-08-02T03:20:20.077Z,2.30
2022-08-02T03:25:21.725Z,2.60
2022-08-02T03:30:26.961Z,2.70
2022-08-02T03:35:28.712Z,2.53
2022-08-02T03:40:31.522Z,2.45
2022-08-02T03:45:33.945Z,2.58
2022-08-02T03:50:37.482Z,2.58
2022-08-02T03:55:40.356Z,3.20
2022-08-02T04:00:42.131Z,3.20
2022-08-02T04:06:01.030Z,2.35
2022-08-02T04:11:25.313Z,2.03
2022-08-02T04:16:50.276Z,2.90
2022-08-02T04:21:54.018Z,2.47
2022-08-02T04:27:19.360Z,2.63
2022-08-02T04:32:21.017Z,2.60
2022-08-02T04:37:22.785Z,2.58
2022-08-02T04:42:26.333Z,2.65
2022-08-02T04:48:02.300Z,2.55
2022-08-02T04:52:49.776Z,2.70
2022-08-02T04:57:57.946Z,2.97
2022-08-02T05:03:00.566Z,2.83
2022-08-02T05:08:02.583Z,2.55
2022-08-02T05:13:05.718Z,2.63
2022-08-02T05:18:07.465Z,3.55
2022-08-02T05:23:09.145Z,2.72
2022-08-02T05:28:11.725Z,2.88
2022-08-02T05:33:13.669Z,2.88
2022-08-02T05:38:15.348Z,2.10
2022-08-02T05:43:17.435Z,2.50
2022-08-02T05:48:19.224Z,2.60
2022-08-02T05:53:36.168Z,2.72
2022-08-02T05:58:53.502Z,3.08
2022-08-02T06:03:58.284Z,2.92
2022-08-02T06:09:04.022Z,3.50
2022-08-02T06:14:07.457Z,2.75
2022-08-02T06:19:09.494Z,3.08
2022-08-02T06:24:13.130Z,2.90
2022-08-02T06:29:15.409Z,2.80
2022-08-02T06:34:17.092Z,2.72
2022-08-02T06:39:28.239Z,3.20
2022-08-02T06:44:47.951Z,3.55
2022-08-02T06:49:54.698Z,3.22
2022-08-02T06:55:01.328Z,2.85
2022-08-02T07:00:08.677Z,2.90
2022-08-02T07:05:10.693Z,2.85
2022-08-02T07:10:14.582Z,3.38
2022-08-02T07:15:18.371Z,2.67
2022-08-02T07:20:20.992Z,2.50
2022-08-02T07:25:22.885Z,2.58
2022-08-02T07:30:24.859Z,2.63
2022-08-02T07:35:26.913Z,2.45
2022-08-02T07:40:32.063Z,2.67
2022-08-02T07:45:35.743Z,2.15
2022-08-02T07:50:38.073Z,2.30
2022-08-02T07:55:40.765Z,2.00
2022-08-02T08:00:43.778Z,1.80
2022-08-02T08:05:45.519Z,1.77
2022-08-02T08:10:47.883Z,1.92
2022-08-02T08:15:51.494Z,1.88
2022-08-02T08:20:54.303Z,1.90
2022-08-02T08:25:56.867Z,2.63
2022-08-02T08:30:58.782Z,1.83
2022-08-02T08:36:02.506Z,1.77
2022-08-02T08:41:04.533Z,2.20
2022-08-02T08:46:22.913Z,1.85
2022-08-02T08:51:26.027Z,1.77
2022-08-02T08:56:34.896Z,2.13
2022-08-02T09:01:50.251Z,2.20
2022-08-02T09:06:52.646Z,2.28
2022-08-02T09:11:54.426Z,2.35
2022-08-02T09:17:08.331Z,1.75
2022-08-02T09:22:12.045Z,1.88
2022-08-02T09:27:18.876Z,1.90
2022-08-02T09:32:21.091Z,2.00
2022-08-02T09:37:30.376Z,1.92
2022-08-02T09:42:32.065Z,1.60
2022-08-02T09:47:37.459Z,1.63
2022-08-02T09:52:43.463Z,1.70
2022-08-02T09:57:50.298Z,1.92
2022-08-02T10:03:07.873Z,1.77
2022-08-02T10:08:09.916Z,2.47
2022-08-02T10:13:12.067Z,1.80
2022-08-02T10:18:37.780Z,5.95
2022-08-02T10:23:43.468Z,1.20
2022-08-02T10:28:50.048Z,1.65
2022-08-02T10:33:54.179Z,1.98
2022-08-02T10:38:58.752Z,1.42
2022-08-02T10:44:01.092Z,1.60
2022-08-02T10:54:39.913Z,1.30
2022-08-02T10:59:41.815Z,1.30
2022-08-02T11:04:43.547Z,1.83
2022-08-02T11:09:47.703Z,2.17
2022-08-02T11:14:59.489Z,1.33
2022-08-02T11:20:13.009Z,1.48
2022-08-02T11:25:23.863Z,1.33
2022-08-02T11:30:27.238Z,1.73
2022-08-02T11:35:34.045Z,1.88
2022-08-02T11:40:38.670Z,1.67
2022-08-02T11:45:40.420Z,1.48
2022-08-02T11:50:42.112Z,2.17
2022-08-02T11:55:43.834Z,1.70
2022-08-02T12:00:47.114Z,1.58
2022-08-02T12:06:04.931Z,1.90
2022-08-02T12:11:07.973Z,1.90
2022-08-02T12:16:30.566Z,1.80
2022-08-02T12:21:32.275Z,1.50
2022-08-02T12:26:47.395Z,1.70
2022-08-02T12:31:57.137Z,1.35
2022-08-02T12:37:09.631Z,1.10
2022-08-02T12:42:14.148Z,1.55
2022-08-02T12:47:16.223Z,1.20
2022-08-02T12:52:22.312Z,1.30
2022-08-02T12:57:25.218Z,1.38
2022-08-02T13:02:26.949Z,1.40
2022-08-02T13:07:28.687Z,1.40
2022-08-02T13:12:30.340Z,1.13
2022-08-02T13:17:32.021Z,1.30
2022-08-02T13:22:33.853Z,1.00
2022-08-02T13:27:36.643Z,1.25
2022-08-02T13:32:38.289Z,1.55
2022-08-02T13:37:41.949Z,1.40
2022-08-02T13:42:43.876Z,1.08
2022-08-02T13:48:04.634Z,1.40
2022-08-02T13:53:07.204Z,1.40
2022-08-02T13:58:09.767Z,1.45
2022-08-02T14:03:12.113Z,1.50
2022-08-02T14:08:16.702Z,1.42
2022-08-02T14:13:19.666Z,1.45
2022-08-02T14:18:22.551Z,1.30
2022-08-02T14:23:50.703Z,1.70
2022-08-02T14:28:45.998Z,1.30
2022-08-02T14:33:51.640Z,1.85
2022-08-02T14:38:53.340Z,1.00
2022-08-02T14:44:04.218Z,1.50
2022-08-02T14:49:07.844Z,1.65
2022-08-02T14:54:11.677Z,1.77
2022-08-02T14:59:13.664Z,1.00
2022-08-02T15:04:15.505Z,1.60
2022-08-02T15:09:17.385Z,1.60
2022-08-02T15:14:25.310Z,1.52
2022-08-02T15:19:56.973Z,1.60
2022-08-02T15:24:50.485Z,1.60
2022-08-02T15:29:52.361Z,1.52
2022-08-02T15:34:53.989Z,1.35
2022-08-02T15:39:55.709Z,1.50
2022-08-02T15:44:57.439Z,1.35
2022-08-02T15:49:59.099Z,1.52
2022-08-02T15:55:07.435Z,1.40
2022-08-02T16:00:14.074Z,1.48
2022-08-02T16:05:21.667Z,1.65
2022-08-02T16:10:23.522Z,1.38
2022-08-02T16:15:25.181Z,1.50
2022-08-02T16:20:26.815Z,1.60
2022-08-02T16:25:28.582Z,1.55
2022-08-02T16:30:30.297Z,1.70
2022-08-02T16:35:32.135Z,1.42
2022-08-02T16:40:34.504Z,1.65
2022-08-02T16:45:36.513Z,1.40
2022-08-02T16:50:38.454Z,1.50
2022-08-02T16:55:40.162Z,1.48
2022-08-02T17:00:53.722Z,1.35
2022-08-02T17:05:56.736Z,1.60
2022-08-02T17:10:59.009Z,1.52
2022-08-02T17:16:25.964Z,1.45
2022-08-02T17:21:28.326Z,1.45
2022-08-02T17:26:30.181Z,2.13
2022-08-02T17:36:54.223Z,1.30
2022-08-02T17:41:56.812Z,1.60
2022-08-02T17:46:59.403Z,1.25
2022-08-02T17:52:48.101Z,1.33
2022-08-02T17:57:23.617Z,1.83
2022-08-02T18:02:52.626Z,1.77
2022-08-02T18:08:07.259Z,1.50
2022-08-02T18:13:09.067Z,2.65
2022-08-02T18:18:10.857Z,2.13
2022-08-02T18:23:14.143Z,1.77
2022-08-02T18:28:15.850Z,1.95
2022-08-02T18:33:57.911Z,2.38
2022-08-02T18:38:39.963Z,1.92
2022-08-02T18:43:47.388Z,2.47
2022-08-02T18:48:49.718Z,1.90
2022-08-02T18:53:53.342Z,1.92
2022-08-02T18:58:56.189Z,2.15
2022-08-02T19:03:58.759Z,2.05
2022-08-02T19:09:12.589Z,2.65
2022-08-02T19:14:19.185Z,2.47
2022-08-02T19:19:29.556Z,2.65
2022-08-02T19:24:31.262Z,1.85
2022-08-02T19:29:42.766Z,1.80
2022-08-02T19:34:50.837Z,1.80
2022-08-02T19:39:52.566Z,2.38
2022-08-02T19:44:54.780Z,2.30
2022-08-02T19:49:57.844Z,2.25
2022-08-02T19:55:58.372Z,2.10
2022-08-02T20:00:21.704Z,2.33
2022-08-02T20:05:23.906Z,2.15
2022-08-02T20:10:26.609Z,2.10
2022-08-02T20:15:55.994Z,2.25
2022-08-02T20:20:50.786Z,1.92
2022-08-02T20:25:54.440Z,2.28
2022-08-02T20:30:56.186Z,2.08
2022-08-02T20:35:57.858Z,2.50
2022-08-02T20:40:59.911Z,2.72
2022-08-02T20:46:01.664Z,2.83
2022-08-02T20:51:09.767Z,2.78
2022-08-02T20:56:14.125Z,2.83
2022-08-02T21:01:15.964Z,3.08
2022-08-02T21:06:17.627Z,3.58
2022-08-02T21:11:25.589Z,3.83
2022-08-02T21:16:35.584Z,3.10
2022-08-02T21:21:37.970Z,2.90
2022-08-02T21:26:39.605Z,3.08
2022-08-02T21:31:41.951Z,3.33
2022-08-02T21:36:45.106Z,3.38
2022-08-02T21:41:47.476Z,4.15
2022-08-02T21:46:51.983Z,3.47
2022-08-02T21:51:54.668Z,3.20
2022-08-02T21:56:56.337Z,3.25
2022-08-02T22:01:58.316Z,3.28
2022-08-02T22:07:00.228Z,2.95
2022-08-02T22:12:02.227Z,2.90
2022-08-02T22:17:08.837Z,2.90
2022-08-02T22:22:11.221Z,3.00
2022-08-02T22:27:13.752Z,3.47
2022-08-02T22:32:35.440Z,3.35
2022-08-02T22:38:17.418Z,3.20
2022-08-02T22:43:00.930Z,3.78
2022-08-02T22:48:03.711Z,3.80
2022-08-02T22:53:05.405Z,3.35
2022-08-02T22:58:07.119Z,3.33
2022-08-02T22:58:38.929Z,1.30
2022-08-02T23:03:08.815Z,3.35
2022-08-02T23:08:10.514Z,3.50
2022-08-02T23:13:12.266Z,3.80
2022-08-02T23:18:32.624Z,4.28
2022-08-02T23:23:34.276Z,3.35
2022-08-02T23:28:36.147Z,3.28
2022-08-02T23:33:37.788Z,3.90
2022-08-02T23:39:00.237Z,3.65
2022-08-02T23:44:15.843Z,3.88
2022-08-02T23:49:18.230Z,3.20
2022-08-02T23:54:20.584Z,3.13
2022-08-02T23:59:22.267Z,3.88
